Time;durP1;ratioP1;P1;durP2;ratioP2;P2;SDS_P1;SDS_P2;PMS_P1;PMS_P2;Temp;Humidity;BMP_temperature;BMP_pressure;BME280_temperature;BME280_humidity;BME280_pressure;Samples;Min_cycle;Max_cycle;Signal;HPM_P1;HPM_P2
2022/12/31 00:02:18;;;;;;;0.20;0.20;;;;;;;;;;10358464;28;20061;-84
2022/12/31 00:07:23;;;;;;;0.73;0.10;;;;;;;;;;10362847;28;20041;-84
2022/12/31 00:12:26;;;;;;;0.13;0.13;;;;;;;;;;10367075;28;20052;-84
2022/12/31 00:17:30;;;;;;;0.10;0.10;;;;;;;;;;10356642;28;20046;-85
2022/12/31 00:22:35;;;;;;;0.10;0.10;;;;;;;;;;10378814;28;20049;-85
2022/12/31 00:27:38;;;;;;;0.13;0.10;;;;;;;;;;10342878;28;20281;-84
2022/12/31 00:32:41;;;;;;;0.90;0.20;;;;;;;;;;10367579;28;20048;-83
2022/12/31 00:37:46;;;;;;;0.20;0.20;;;;;;;;;;10351387;28;20048;-82
2022/12/31 00:42:50;;;;;;;0.17;0.15;;;;;;;;;;10342810;28;20054;-83
2022/12/31 00:47:53;;;;;;;0.10;0.10;;;;;;;;;;10344274;28;20125;-83
2022/12/31 00:52:57;;;;;;;0.10;0.10;;;;;;;;;;10369204;28;20048;-83
2022/12/31 00:58:01;;;;;;;0.13;0.13;;;;;;;;;;10363072;28;20041;-81
2022/12/31 01:03:04;;;;;;;0.10;0.10;;;;;;;;;;10345494;28;20053;-81
2022/12/31 01:08:09;;;;;;;0.10;0.10;;;;;;;;;;10334413;28;20128;-84
2022/12/31 01:13:13;;;;;;;0.10;0.10;;;;;;;;;;10364101;28;20057;-83
2022/12/31 01:18:16;;;;;;;0.10;0.10;;;;;;;;;;10377441;28;20041;-80
2022/12/31 01:23:21;;;;;;;0.10;0.10;;;;;;;;;;10361710;28;20049;-81
2022/12/31 01:28:24;;;;;;;0.10;0.10;;;;;;;;;;10360710;28;20048;-82
2022/12/31 01:33:27;;;;;;;0.10;0.10;;;;;;;;;;10344903;28;20046;-82
2022/12/31 01:38:33;;;;;;;0.10;0.10;;;;;;;;;;10341251;28;20045;-83
2022/12/31 01:43:53;;;;;;;0.32;0.10;;;;;;;;;;10329877;28;20046;-83
2022/12/31 01:49:00;;;;;;;0.13;0.13;;;;;;;;;;10340766;28;20577;-81
2022/12/31 01:54:07;;;;;;;0.10;0.10;;;;;;;;;;10354945;28;20041;-84
2022/12/31 01:59:14;;;;;;;0.10;0.10;;;;;;;;;;10331214;28;20056;-81
2022/12/31 02:04:17;;;;;;;0.10;0.10;;;;;;;;;;10331442;28;20125;-81
2022/12/31 02:09:22;;;;;;;0.10;0.10;;;;;;;;;;10339132;28;20122;-80
2022/12/31 02:14:29;;;;;;;1.13;0.30;;;;;;;;;;10338823;28;20053;-80
2022/12/31 02:19:55;;;;;;;0.10;0.10;;;;;;;;;;10362682;28;20038;-80
2022/12/31 02:25:24;;;;;;;0.10;0.10;;;;;;;;;;10381076;28;20501;-80
2022/12/31 02:30:32;;;;;;;0.10;0.10;;;;;;;;;;10322614;28;20072;-80
2022/12/31 02:35:43;;;;;;;0.10;0.10;;;;;;;;;;10362889;28;20052;-81
2022/12/31 02:40:47;;;;;;;0.05;0.05;;;;;;;;;;10374115;28;20046;-81
2022/12/31 02:46:01;;;;;;;0.10;0.10;;;;;;;;;;10373724;28;20111;-83
2022/12/31 02:51:18;;;;;;;0.90;0.10;;;;;;;;;;10367344;28;20038;-82
2022/12/31 02:56:27;;;;;;;1.00;0.32;;;;;;;;;;10377838;28;20041;-84
2022/12/31 03:06:57;;;;;;;0.70;0.30;;;;;;;;;;10357745;28;20041;-85
2022/12/31 03:17:24;;;;;;;0.32;0.20;;;;;;;;;;10376435;28;20483;-82
2022/12/31 03:22:28;;;;;;;0.20;0.20;;;;;;;;;;10378496;28;20064;-83
2022/12/31 03:27:31;;;;;;;0.57;0.20;;;;;;;;;;10348881;28;20064;-83
2022/12/31 03:32:37;;;;;;;0.85;0.20;;;;;;;;;;10362147;28;20046;-83
2022/12/31 03:37:41;;;;;;;0.15;0.15;;;;;;;;;;10360052;28;20052;-83
2022/12/31 03:42:45;;;;;;;0.20;0.20;;;;;;;;;;10363622;28;20128;-85
2022/12/31 03:47:50;;;;;;;0.60;0.20;;;;;;;;;;10354878;28;20416;-84
2022/12/31 03:52:53;;;;;;;0.52;0.13;;;;;;;;;;10371800;28;20045;-83
2022/12/31 03:57:57;;;;;;;1.13;0.30;;;;;;;;;;10349516;28;20053;-86
2022/12/31 04:03:01;;;;;;;0.20;0.20;;;;;;;;;;10357208;28;20049;-83
2022/12/31 04:08:05;;;;;;;0.43;0.28;;;;;;;;;;10369504;28;20065;-83
2022/12/31 04:13:08;;;;;;;0.20;0.20;;;;;;;;;;10364332;28;20420;-86
2022/12/31 04:18:13;;;;;;;1.00;0.47;;;;;;;;;;10359914;28;20041;-86
2022/12/31 04:23:16;;;;;;;0.50;0.30;;;;;;;;;;10348481;28;20045;-81
2022/12/31 04:28:20;;;;;;;0.32;0.28;;;;;;;;;;10350505;28;20076;-83
2022/12/31 04:33:25;;;;;;;0.20;0.20;;;;;;;;;;10350703;28;20042;-82
2022/12/31 04:38:29;;;;;;;1.08;0.30;;;;;;;;;;10337799;28;20141;-84
2022/12/31 04:43:32;;;;;;;0.40;0.30;;;;;;;;;;10367353;28;20053;-85
2022/12/31 04:48:37;;;;;;;1.05;0.50;;;;;;;;;;10350665;28;20448;-81
2022/12/31 04:53:41;;;;;;;0.50;0.30;;;;;;;;;;10351998;28;20048;-81
2022/12/31 04:58:45;;;;;;;0.88;0.30;;;;;;;;;;10370944;28;20044;-83
2022/12/31 05:03:50;;;;;;;0.40;0.30;;;;;;;;;;10373233;28;20056;-83
2022/12/31 05:08:54;;;;;;;0.30;0.30;;;;;;;;;;10348890;28;20592;-83
2022/12/31 05:13:58;;;;;;;0.30;0.20;;;;;;;;;;10354989;28;20132;-81
2022/12/31 05:19:05;;;;;;;0.57;0.32;;;;;;;;;;10344716;28;20053;-81
2022/12/31 05:24:08;;;;;;;2.58;0.68;;;;;;;;;;10351889;28;20053;-81
2022/12/31 05:29:12;;;;;;;0.47;0.25;;;;;;;;;;10330396;28;20585;-82
2022/12/31 05:34:16;;;;;;;1.65;0.63;;;;;;;;;;10364524;28;20064;-84
2022/12/31 05:39:19;;;;;;;1.00;0.30;;;;;;;;;;10347711;28;20045;-87
2022/12/31 05:44:23;;;;;;;0.40;0.30;;;;;;;;;;10337918;28;20721;-83
2022/12/31 05:49:28;;;;;;;1.20;0.40;;;;;;;;;;10353562;28;20129;-85
2022/12/31 05:54:31;;;;;;;1.23;0.30;;;;;;;;;;10374221;28;20501;-84
2022/12/31 05:59:35;;;;;;;0.65;0.30;;;;;;;;;;10347644;28;20134;-83
2022/12/31 06:04:39;;;;;;;1.08;0.32;;;;;;;;;;10354701;28;20052;-83
2022/12/31 06:09:43;;;;;;;1.10;0.50;;;;;;;;;;10346962;28;20048;-83
2022/12/31 06:14:47;;;;;;;1.10;0.50;;;;;;;;;;10357191;28;20049;-84
2022/12/31 06:19:52;;;;;;;0.65;0.30;;;;;;;;;;10365336;28;20091;-87
2022/12/31 06:24:57;;;;;;;1.23;0.40;;;;;;;;;;10365268;28;20041;-84
2022/12/31 06:30:00;;;;;;;0.93;0.30;;;;;;;;;;10347760;28;20066;-85
2022/12/31 06:35:07;;;;;;;0.70;0.40;;;;;;;;;;10359085;28;20061;-81
2022/12/31 06:40:10;;;;;;;;;;;;;;;;;;10362130;28;20098;-83
2022/12/31 06:45:14;;;;;;;1.63;0.50;;;;;;;;;;10338220;28;20311;-83
2022/12/31 06:50:18;;;;;;;2.20;0.60;;;;;;;;;;10345379;28;20625;-85
2022/12/31 06:55:22;;;;;;;1.95;0.50;;;;;;;;;;10338942;28;20057;-84
2022/12/31 07:00:26;;;;;;;1.02;0.40;;;;;;;;;;10362575;28;20260;-84
2022/12/31 07:05:45;;;;;;;0.88;0.47;;;;;;;;;;10343453;28;20053;-83
2022/12/31 07:10:55;;;;;;;0.60;0.40;;;;;;;;;;10346407;28;20054;-86
2022/12/31 07:16:12;;;;;;;1.10;0.30;;;;;;;;;;10317339;28;20470;-85
2022/12/31 07:21:21;;;;;;;0.30;0.30;;;;;;;;;;10314935;28;20046;-84
2022/12/31 07:26:37;;;;;;;1.38;0.60;;;;;;;;;;10333898;28;20258;-84
2022/12/31 07:32:00;;;;;;;1.13;0.38;;;;;;;;;;10317331;28;20378;-84
2022/12/31 07:37:10;;;;;;;1.30;0.60;;;;;;;;;;10316296;28;20072;-81
2022/12/31 07:42:21;;;;;;;1.42;0.50;;;;;;;;;;10338866;28;20477;-82
2022/12/31 07:47:26;;;;;;;1.35;0.70;;;;;;;;;;10325128;28;20065;-80
2022/12/31 07:52:31;;;;;;;0.93;0.47;;;;;;;;;;10309125;28;20134;-82
2022/12/31 07:57:42;;;;;;;0.45;0.30;;;;;;;;;;10324513;28;20042;-82
2022/12/31 08:03:10;;;;;;;1.10;0.40;;;;;;;;;;10301222;28;20056;-81
2022/12/31 08:08:24;;;;;;;0.40;0.40;;;;;;;;;;10324684;28;20536;-80
2022/12/31 08:13:28;;;;;;;2.15;0.60;;;;;;;;;;10326683;28;20050;-85
2022/12/31 08:18:32;;;;;;;0.98;0.40;;;;;;;;;;10320782;28;20046;-85
2022/12/31 08:23:42;;;;;;;1.35;0.50;;;;;;;;;;10316441;28;20057;-81
2022/12/31 08:41:41;;;;;;;1.25;0.55;;;;;;;;;;10379249;22;20074;-84
2022/12/31 08:46:55;;;;;;;0.93;0.50;;;;;;;;;;10323932;28;20064;-85
2022/12/31 08:51:59;;;;;;;1.67;0.70;;;;;;;;;;10320164;28;20054;-83
2022/12/31 08:57:14;;;;;;;1.13;0.60;;;;;;;;;;10318546;28;20046;-83
2022/12/31 09:02:52;;;;;;;2.90;0.83;;;;;;;;;;10339212;28;20057;-83
2022/12/31 09:08:04;;;;;;;0.85;0.50;;;;;;;;;;10349405;28;20288;-84
2022/12/31 09:13:16;;;;;;;0.98;0.60;;;;;;;;;;10375625;28;20053;-84
2022/12/31 09:18:21;;;;;;;1.02;0.50;;;;;;;;;;10369620;28;20773;-83
2022/12/31 09:23:24;;;;;;;1.08;0.57;;;;;;;;;;10390390;28;20037;-83
2022/12/31 09:28:41;;;;;;;4.57;0.90;;;;;;;;;;10374981;28;20037;-83
2022/12/31 09:33:51;;;;;;;0.32;0.30;;;;;;;;;;10404671;28;20596;-83
2022/12/31 09:39:04;;;;;;;0.43;0.30;;;;;;;;;;10379784;28;20069;-84
2022/12/31 09:44:40;;;;;;;2.13;0.43;;;;;;;;;;10357240;28;20045;-84
2022/12/31 09:50:22;;;;;;;1.83;0.80;;;;;;;;;;10352054;28;20052;-84
2022/12/31 09:55:35;;;;;;;3.08;0.73;;;;;;;;;;10379742;28;20684;-83
2022/12/31 10:00:43;;;;;;;2.92;0.70;;;;;;;;;;10338845;28;20577;-87
2022/12/31 10:05:59;;;;;;;1.95;0.50;;;;;;;;;;10329760;28;20128;-87
2022/12/31 10:11:09;;;;;;;0.95;0.60;;;;;;;;;;10358067;28;20049;-86
2022/12/31 10:16:36;;;;;;;1.48;0.70;;;;;;;;;;10371351;28;20120;-88
2022/12/31 10:21:53;;;;;;;1.17;0.60;;;;;;;;;;10372164;28;20045;-88
2022/12/31 10:27:30;;;;;;;1.75;0.30;;;;;;;;;;10362345;28;20056;-87
2022/12/31 10:32:43;;;;;;;0.75;0.40;;;;;;;;;;10364179;28;20412;-87
2022/12/31 10:37:57;;;;;;;0.93;0.50;;;;;;;;;;10359001;28;20049;-87
2022/12/31 10:43:47;;;;;;;2.72;0.47;;;;;;;;;;10383088;28;20045;-89
2022/12/31 10:49:21;;;;;;;2.95;0.68;;;;;;;;;;10293831;28;20121;-89
2022/12/31 10:55:18;;;;;;;1.05;0.57;;;;;;;;;;10401590;28;20048;-90
2022/12/31 11:00:23;;;;;;;1.20;0.52;;;;;;;;;;10364161;28;20534;-87
2022/12/31 11:05:41;;;;;;;;;;;;;;;;;;10373170;28;20128;-88
2022/12/31 11:11:16;;;;;;;2.97;0.63;;;;;;;;;;10374910;28;19928;-88
2022/12/31 11:16:47;;;;;;;2.67;0.60;;;;;;;;;;10383445;28;20064;-88
2022/12/31 11:22:17;;;;;;;1.88;0.55;;;;;;;;;;10384029;28;20049;-87
2022/12/31 11:27:45;;;;;;;2.35;0.65;;;;;;;;;;10379567;28;20061;-87
2022/12/31 11:33:15;;;;;;;1.13;0.68;;;;;;;;;;10388556;28;20686;-87
2022/12/31 11:38:24;;;;;;;2.53;0.75;;;;;;;;;;10384350;28;20057;-87
2022/12/31 11:43:34;;;;;;;2.65;1.13;;;;;;;;;;10370591;28;20099;-88
2022/12/31 11:48:44;;;;;;;2.80;0.70;;;;;;;;;;10394955;28;20041;-87
2022/12/31 11:54:30;;;;;;;0.98;0.57;;;;;;;;;;10366834;28;20045;-86
2022/12/31 11:59:33;;;;;;;0.85;0.43;;;;;;;;;;10347228;28;20045;-87
2022/12/31 12:04:38;;;;;;;2.75;0.60;;;;;;;;;;10378650;28;20107;-87
2022/12/31 12:09:44;;;;;;;0.80;0.40;;;;;;;;;;10379301;28;20400;-86
2022/12/31 12:14:52;;;;;;;1.98;0.38;;;;;;;;;;10394969;28;20335;-86
2022/12/31 12:20:00;;;;;;;0.65;0.32;;;;;;;;;;10394446;28;20065;-85
2022/12/31 12:25:15;;;;;;;0.45;0.45;;;;;;;;;;10381893;28;20065;-86
2022/12/31 12:30:21;;;;;;;5.33;0.50;;;;;;;;;;10384971;28;20087;-86
2022/12/31 12:35:29;;;;;;;2.90;0.70;;;;;;;;;;10421123;28;20292;-86
2022/12/31 12:40:34;;;;;;;0.85;0.40;;;;;;;;;;10432259;28;20134;-86
2022/12/31 12:45:43;;;;;;;1.35;0.50;;;;;;;;;;10408118;28;20562;-85
2022/12/31 12:50:52;;;;;;;0.88;0.60;;;;;;;;;;10379479;28;20042;-86
2022/12/31 12:56:05;;;;;;;0.60;0.40;;;;;;;;;;10410275;28;20749;-86
2022/12/31 13:01:18;;;;;;;1.48;0.55;;;;;;;;;;10416687;28;20743;-86
2022/12/31 13:06:33;;;;;;;0.93;0.60;;;;;;;;;;10413555;28;20046;-88
2022/12/31 13:11:46;;;;;;;3.05;0.57;;;;;;;;;;10405433;28;20059;-87
2022/12/31 13:16:59;;;;;;;0.98;0.40;;;;;;;;;;10397810;28;20046;-88
2022/12/31 13:22:11;;;;;;;0.65;0.47;;;;;;;;;;10401464;28;20042;-88
2022/12/31 13:27:20;;;;;;;1.40;0.60;;;;;;;;;;10396519;28;20053;-87
2022/12/31 13:32:28;;;;;;;1.30;0.45;;;;;;;;;;10413895;28;20057;-87
2022/12/31 13:37:39;;;;;;;1.15;0.57;;;;;;;;;;10390681;28;20084;-85
2022/12/31 13:42:52;;;;;;;1.23;0.70;;;;;;;;;;10407182;28;20045;-85
2022/12/31 13:47:59;;;;;;;1.45;0.73;;;;;;;;;;10410351;28;20428;-86
2022/12/31 13:53:14;;;;;;;1.98;0.82;;;;;;;;;;10389370;28;20080;-88
2022/12/31 13:58:26;;;;;;;1.73;0.90;;;;;;;;;;10385763;28;20072;-86
2022/12/31 14:03:39;;;;;;;4.05;1.40;;;;;;;;;;10358065;28;20049;-83
2022/12/31 14:08:45;;;;;;;0.93;0.60;;;;;;;;;;10379963;28;20131;-85
2022/12/31 14:14:00;;;;;;;1.23;0.90;;;;;;;;;;10363842;28;20141;-85
2022/12/31 14:19:13;;;;;;;2.28;0.63;;;;;;;;;;10395974;28;20048;-87
2022/12/31 14:24:32;;;;;;;2.38;0.93;;;;;;;;;;10389424;28;20049;-86
2022/12/31 14:29:40;;;;;;;3.22;0.80;;;;;;;;;;10404322;28;20103;-87
2022/12/31 14:34:53;;;;;;;1.75;0.65;;;;;;;;;;10402006;22;20061;-85
2022/12/31 14:40:06;;;;;;;0.73;0.63;;;;;;;;;;10377833;28;20061;-84
2022/12/31 14:45:23;;;;;;;1.10;0.65;;;;;;;;;;10359352;28;20042;-85
2022/12/31 14:50:28;;;;;;;1.10;0.60;;;;;;;;;;10351023;28;20346;-86
2022/12/31 14:55:35;;;;;;;0.77;0.60;;;;;;;;;;10366369;28;20061;-86
2022/12/31 15:00:39;;;;;;;1.80;0.60;;;;;;;;;;10363055;28;20038;-85
2022/12/31 15:05:52;;;;;;;0.82;0.40;;;;;;;;;;10367802;28;20041;-85
2022/12/31 15:11:22;;;;;;;0.88;0.60;;;;;;;;;;10356045;28;20053;-84
2022/12/31 15:16:39;;;;;;;1.55;0.50;;;;;;;;;;10354438;28;20042;-84
2022/12/31 15:21:57;;;;;;;1.02;0.50;;;;;;;;;;10340410;28;20066;-83
2022/12/31 15:27:05;;;;;;;0.85;0.70;;;;;;;;;;10322093;28;20049;-83
2022/12/31 15:32:20;;;;;;;2.00;0.82;;;;;;;;;;10325026;28;20125;-83
2022/12/31 15:37:33;;;;;;;2.85;1.50;;;;;;;;;;10329158;28;20070;-83
2022/12/31 15:42:45;;;;;;;3.28;1.38;;;;;;;;;;10325308;28;20052;-84
2022/12/31 15:47:58;;;;;;;1.02;0.80;;;;;;;;;;10336353;28;20097;-83
2022/12/31 15:53:03;;;;;;;1.35;0.50;;;;;;;;;;10326390;28;20046;-83
2022/12/31 15:58:13;;;;;;;1.67;0.98;;;;;;;;;;10321189;28;20041;-83
2022/12/31 16:03:21;;;;;;;5.07;2.40;;;;;;;;;;10315085;28;20038;-84
2022/12/31 16:08:29;;;;;;;6.72;4.47;;;;;;;;;;10330288;28;20037;-84
2022/12/31 16:13:36;;;;;;;1.92;1.17;;;;;;;;;;10321930;28;20037;-85
2022/12/31 16:18:41;;;;;;;2.80;0.85;;;;;;;;;;10337954;28;20129;-85
2022/12/31 16:23:50;;;;;;;1.00;0.70;;;;;;;;;;10333949;28;20037;-85
2022/12/31 16:28:58;;;;;;;0.70;0.60;;;;;;;;;;10337524;28;20053;-83
2022/12/31 16:34:07;;;;;;;1.02;0.45;;;;;;;;;;10333963;28;20096;-83
2022/12/31 16:39:24;;;;;;;0.65;0.50;;;;;;;;;;10318283;28;20463;-83
2022/12/31 16:44:30;;;;;;;1.52;0.60;;;;;;;;;;10306897;28;20058;-83
2022/12/31 16:49:37;;;;;;;2.17;0.70;;;;;;;;;;10314018;28;20057;-83
2022/12/31 16:54:46;;;;;;;0.88;0.63;;;;;;;;;;10323106;28;20045;-83
2022/12/31 16:59:54;;;;;;;2.25;0.77;;;;;;;;;;10329263;28;20054;-85
2022/12/31 17:04:58;;;;;;;0.70;0.60;;;;;;;;;;10333367;28;20046;-86
2022/12/31 17:10:16;;;;;;;1.17;0.50;;;;;;;;;;10330036;28;20042;-85
2022/12/31 17:15:24;;;;;;;0.93;0.52;;;;;;;;;;10323402;28;20721;-85
2022/12/31 17:20:30;;;;;;;0.85;0.70;;;;;;;;;;10326406;28;20048;-85
2022/12/31 17:25:34;;;;;;;;;;;;;;;;;;10326111;28;20041;-87
2022/12/31 17:30:44;;;;;;;0.80;0.70;;;;;;;;;;10331533;28;19925;-84
2022/12/31 17:35:53;;;;;;;1.45;1.10;;;;;;;;;;10345701;28;20129;-85
2022/12/31 17:41:15;;;;;;;1.55;0.80;;;;;;;;;;10347562;28;20077;-85
2022/12/31 17:46:20;;;;;;;1.70;1.02;;;;;;;;;;10341081;28;20045;-85
2022/12/31 17:51:27;;;;;;;3.63;1.38;;;;;;;;;;10358143;28;20045;-86
2022/12/31 17:56:30;;;;;;;1.60;0.98;;;;;;;;;;10362262;28;20048;-86
2022/12/31 18:01:37;;;;;;;1.00;0.70;;;;;;;;;;10373022;28;20071;-85
2022/12/31 18:06:42;;;;;;;1.92;0.93;;;;;;;;;;10370922;28;20550;-84
2022/12/31 18:11:47;;;;;;;1.02;0.93;;;;;;;;;;10372399;28;20336;-82
2022/12/31 18:16:53;;;;;;;1.65;1.10;;;;;;;;;;10367786;28;20058;-82
2022/12/31 18:21:59;;;;;;;2.58;1.10;;;;;;;;;;10375251;28;20046;-82
2022/12/31 18:27:02;;;;;;;1.75;1.65;;;;;;;;;;10367867;28;20049;-82
2022/12/31 18:32:09;;;;;;;1.90;1.30;;;;;;;;;;10363102;28;20448;-82
2022/12/31 18:37:13;;;;;;;0.93;0.60;;;;;;;;;;10385706;28;20049;-83
2022/12/31 18:42:22;;;;;;;0.65;0.60;;;;;;;;;;10363195;28;20072;-82
2022/12/31 18:47:26;;;;;;;1.65;1.00;;;;;;;;;;10389372;28;20045;-84
2022/12/31 18:52:31;;;;;;;1.73;0.80;;;;;;;;;;10367840;28;20514;-85
2022/12/31 18:57:34;;;;;;;2.03;0.80;;;;;;;;;;10371614;28;20110;-84
2022/12/31 19:02:39;;;;;;;0.95;0.60;;;;;;;;;;10389098;28;20273;-84
2022/12/31 19:07:42;;;;;;;1.83;0.68;;;;;;;;;;10377247;28;20128;-82
2022/12/31 19:12:46;;;;;;;1.05;0.60;;;;;;;;;;10374732;28;20057;-82
2022/12/31 19:17:51;;;;;;;1.23;0.90;;;;;;;;;;10399821;28;20550;-84
2022/12/31 19:22:55;;;;;;;2.38;0.85;;;;;;;;;;10364469;28;20052;-82
2022/12/31 19:27:59;;;;;;;1.40;1.00;;;;;;;;;;10366398;28;20042;-82
2022/12/31 19:33:04;;;;;;;1.80;0.70;;;;;;;;;;10384456;28;20092;-85
2022/12/31 19:38:16;;;;;;;1.45;0.70;;;;;;;;;;10365010;28;20459;-83
2022/12/31 19:43:22;;;;;;;1.88;0.80;;;;;;;;;;10357967;28;20052;-83
2022/12/31 19:48:27;;;;;;;0.73;0.70;;;;;;;;;;10374275;28;20033;-83
2022/12/31 19:53:34;;;;;;;0.98;0.63;;;;;;;;;;10381887;28;20433;-83
2022/12/31 19:58:37;;;;;;;2.67;0.77;;;;;;;;;;10390062;28;20408;-81
2022/12/31 20:03:42;;;;;;;1.55;0.70;;;;;;;;;;10385109;28;20064;-83
2022/12/31 20:08:46;;;;;;;1.33;0.50;;;;;;;;;;10383382;28;20053;-82
2022/12/31 20:13:51;;;;;;;1.20;0.60;;;;;;;;;;10374981;28;20041;-82
2022/12/31 20:18:55;;;;;;;1.23;0.95;;;;;;;;;;10396365;28;20057;-82
2022/12/31 20:23:59;;;;;;;5.50;1.83;;;;;;;;;;10385502;28;20052;-81
2022/12/31 20:29:02;;;;;;;1.50;0.90;;;;;;;;;;10379546;28;20055;-82
2022/12/31 21:34:47;;;;;;;2.70;0.70;;;;;;;;;;11278143;23;20045;-85
2022/12/31 21:40:03;;;;;;;1.15;0.77;;;;;;;;;;10069412;29;20056;-85
2022/12/31 21:45:08;;;;;;;1.13;0.80;;;;;;;;;;10055276;29;20590;-85
2022/12/31 21:50:13;;;;;;;1.00;0.70;;;;;;;;;;10063678;29;20049;-85
2022/12/31 22:06:04;;;;;;;2.50;1.30;;;;;;;;;;10088459;29;20079;-86
2022/12/31 22:11:08;;;;;;;1.67;1.08;;;;;;;;;;10088048;29;20132;-86
2022/12/31 22:16:13;;;;;;;1.27;0.80;;;;;;;;;;10077297;29;20055;-86
2022/12/31 22:21:19;;;;;;;0.82;0.50;;;;;;;;;;10055295;29;20124;-86
2022/12/31 22:26:24;;;;;;;2.55;0.95;;;;;;;;;;10064099;29;20056;-86
2022/12/31 22:31:31;;;;;;;2.03;1.10;;;;;;;;;;10067248;29;20144;-86
2022/12/31 22:36:36;;;;;;;2.75;1.52;;;;;;;;;;10078771;29;20116;-87
2022/12/31 22:41:40;;;;;;;3.40;1.20;;;;;;;;;;10099028;29;20136;-88
2022/12/31 22:46:44;;;;;;;1.25;1.02;;;;;;;;;;10090422;29;20059;-87
2022/12/31 22:51:49;;;;;;;4.07;0.88;;;;;;;;;;10089052;29;20127;-87
2022/12/31 22:56:53;;;;;;;2.75;0.68;;;;;;;;;;10095635;29;20049;-88
2022/12/31 23:01:56;;;;;;;1.08;0.80;;;;;;;;;;10072751;29;20071;-86
2022/12/31 23:07:02;;;;;;;1.17;0.95;;;;;;;;;;10104137;29;20131;-86
2022/12/31 23:12:07;;;;;;;6.57;2.85;;;;;;;;;;10048689;29;20056;-86
2022/12/31 23:27:59;;;;;;;3.97;1.98;;;;;;;;;;10067756;29;20293;-86
2022/12/31 23:33:06;;;;;;;4.05;2.50;;;;;;;;;;10060548;29;20715;-85
2022/12/31 23:38:10;;;;;;;3.90;2.05;;;;;;;;;;10060303;29;20431;-85
2022/12/31 23:43:20;;;;;;;2.13;1.63;;;;;;;;;;10074165;29;20131;-87
2022/12/31 23:48:23;;;;;;;2.90;2.05;;;;;;;;;;10104409;29;20044;-89
2022/12/31 23:53:28;;;;;;;1.70;1.20;;;;;;;;;;10085754;29;20044;-87
2022/12/31 23:58:32;;;;;;;1.00;0.82;;;;;;;;;;10096380;29;20083;-89
